Time;durP1;ratioP1;P1;durP2;ratioP2;P2;SDS_P1;SDS_P2;PMS_P1;PMS_P2;Temp;Humidity;BMP_temperature;BMP_pressure;BME280_temperature;BME280_humidity;BME280_pressure;Samples;Min_cycle;Max_cycle;Signal;HPM_P1;HPM_P2
2023/08/04 00:01:19;;;;;;;1999.90;999.90;;;14.20;74.10;;;;;;5090489;28;20035;-73
2023/08/04 00:03:45;;;;;;;1999.90;999.90;;;14.30;74.10;;;;;;5103315;28;20077;-73
2023/08/04 00:06:11;;;;;;;1999.90;999.90;;;14.40;73.50;;;;;;5102473;28;20039;-73
2023/08/04 00:08:36;;;;;;;1999.90;999.90;;;14.30;73.80;;;;;;5105365;28;20573;-73
2023/08/04 00:11:03;;;;;;;1999.90;999.90;;;14.20;75.30;;;;;;5106112;28;20038;-73
2023/08/04 00:13:30;;;;;;;1999.90;999.90;;;14.30;74.40;;;;;;5105633;28;20886;-73
2023/08/04 00:16:04;;;;;;;1999.90;999.90;;;14.30;73.40;;;;;;5106318;28;20055;-73
2023/08/04 00:18:30;;;;;;;1999.90;999.90;;;14.20;74.90;;;;;;5108019;28;20027;-72
2023/08/04 00:20:56;;;;;;;1999.90;999.90;;;14.10;75.30;;;;;;5109117;28;20082;-73
2023/08/04 00:23:21;;;;;;;1999.90;999.90;;;14.10;74.90;;;;;;5106996;28;20030;-73
2023/08/04 00:25:47;;;;;;;1999.90;999.90;;;14.10;74.70;;;;;;5106204;28;20031;-73
2023/08/04 00:28:12;;;;;;;1999.90;999.90;;;14.10;75.30;;;;;;5093264;28;20396;-73
2023/08/04 00:30:38;;;;;;;1999.90;999.90;;;14.10;74.70;;;;;;5110721;28;20111;-73
2023/08/04 00:33:04;;;;;;;1999.90;999.90;;;14.10;74.90;;;;;;5109586;28;20078;-73
2023/08/04 00:35:29;;;;;;;1999.90;999.90;;;14.00;74.80;;;;;;5107419;28;20490;-73
2023/08/04 00:37:55;;;;;;;1999.90;999.90;;;14.00;75.50;;;;;;5107380;28;20382;-73
2023/08/04 00:40:21;;;;;;;1999.90;999.90;;;14.00;75.90;;;;;;5110895;28;20034;-73
2023/08/04 00:42:46;;;;;;;1999.90;999.90;;;14.00;75.70;;;;;;5109737;28;20047;-73
2023/08/04 00:45:12;;;;;;;1999.90;999.90;;;14.00;75.00;;;;;;5108655;28;20062;-73
2023/08/04 00:47:39;;;;;;;1999.90;999.90;;;14.10;75.20;;;;;;5109069;27;20059;-73
2023/08/04 00:50:08;;;;;;;1999.90;999.90;;;14.10;75.10;;;;;;5108693;28;20031;-73
2023/08/04 00:52:36;;;;;;;1999.90;999.90;;;14.10;74.00;;;;;;5109332;28;20119;-73
2023/08/04 00:55:02;;;;;;;1999.90;999.90;;;14.20;74.10;;;;;;5106744;28;20036;-73
2023/08/04 00:57:27;;;;;;;1999.90;999.90;;;14.20;74.40;;;;;;5083427;28;20108;-73
2023/08/04 00:59:55;;;;;;;1999.90;999.90;;;14.20;73.40;;;;;;5109740;28;20054;-72
2023/08/04 01:02:22;;;;;;;1999.90;999.90;;;14.20;74.50;;;;;;5107924;27;20058;-73
2023/08/04 01:04:48;;;;;;;1999.90;999.90;;;14.20;74.60;;;;;;5109806;28;20043;-73
2023/08/04 01:07:25;;;;;;;1999.90;999.90;;;14.20;74.60;;;;;;5109497;28;20389;-72
2023/08/04 01:09:58;;;;;;;1999.90;999.90;;;14.10;75.00;;;;;;5108156;28;20039;-73
2023/08/04 01:12:34;;;;;;;1999.90;999.90;;;14.10;74.70;;;;;;5107958;28;20077;-73
2023/08/04 01:15:02;;;;;;;1999.90;999.90;;;14.20;74.60;;;;;;5110573;28;20616;-73
2023/08/04 01:17:31;;;;;;;1999.90;999.90;;;14.30;74.00;;;;;;5107942;28;20110;-73
2023/08/04 01:19:58;;;;;;;1999.90;999.90;;;14.30;73.70;;;;;;5106426;28;20028;-73
2023/08/04 01:22:25;;;;;;;1999.90;999.90;;;14.20;74.40;;;;;;5104674;28;20056;-73
2023/08/04 01:24:52;;;;;;;1999.90;999.90;;;14.20;75.10;;;;;;5108039;28;20080;-73
2023/08/04 01:27:35;;;;;;;1999.90;999.90;;;14.20;75.80;;;;;;5105045;28;20443;-72
2023/08/04 01:30:03;;;;;;;1999.90;999.90;;;14.20;74.80;;;;;;5110025;27;20440;-73
2023/08/04 01:32:29;;;;;;;1999.90;999.90;;;14.20;74.40;;;;;;5108185;27;20558;-73
2023/08/04 01:34:55;;;;;;;1999.90;999.90;;;14.20;74.00;;;;;;5107715;28;20036;-72
2023/08/04 01:37:21;;;;;;;1999.90;999.90;;;14.20;74.40;;;;;;5091520;28;20024;-73
2023/08/04 01:39:46;;;;;;;1999.90;999.90;;;14.20;75.70;;;;;;5105952;28;20050;-73
2023/08/04 01:42:12;;;;;;;1999.90;999.90;;;14.30;74.60;;;;;;5108741;28;20038;-73
2023/08/04 01:44:38;;;;;;;1999.90;999.90;;;14.10;75.30;;;;;;5107571;27;20118;-73
2023/08/04 01:47:05;;;;;;;1999.90;999.90;;;14.00;77.40;;;;;;5108246;28;20055;-72
2023/08/04 01:49:48;;;;;;;1999.90;999.90;;;14.00;78.20;;;;;;5109989;28;20528;-72
2023/08/04 01:52:14;;;;;;;1999.90;999.90;;;13.90;77.80;;;;;;5111168;28;20066;-72
2023/08/04 01:54:40;;;;;;;1999.90;999.90;;;13.80;77.40;;;;;;5100882;28;20115;-73
2023/08/04 01:57:06;;;;;;;1999.90;999.90;;;13.80;77.00;;;;;;5104819;28;20156;-73
2023/08/04 01:59:32;;;;;;;1999.90;999.90;;;13.90;76.70;;;;;;5106040;27;20023;-73
2023/08/04 02:01:58;;;;;;;1999.90;999.90;;;14.00;77.30;;;;;;5108128;28;20055;-73
2023/08/04 02:04:23;;;;;;;1999.90;999.90;;;14.00;77.50;;;;;;5107025;28;20028;-73
2023/08/04 02:06:49;;;;;;;1999.90;999.90;;;14.00;77.10;;;;;;5105881;28;20036;-73
2023/08/04 02:09:15;;;;;;;1999.90;999.90;;;14.00;76.00;;;;;;5105266;28;20057;-73
2023/08/04 02:11:41;;;;;;;1999.90;999.90;;;14.00;76.20;;;;;;5107352;28;20493;-73
2023/08/04 02:14:07;;;;;;;1999.90;999.90;;;13.90;77.30;;;;;;5111250;27;20069;-72
2023/08/04 02:16:33;;;;;;;1999.90;999.90;;;13.90;78.40;;;;;;5106390;28;20036;-72
2023/08/04 02:19:16;;;;;;;1999.90;999.90;;;13.90;77.70;;;;;;5091117;28;20036;-73
2023/08/04 02:21:42;;;;;;;1999.90;999.90;;;14.00;77.40;;;;;;5107333;28;20040;-73
2023/08/04 02:24:08;;;;;;;1999.90;999.90;;;14.00;77.20;;;;;;5106185;28;20043;-72
2023/08/04 02:26:33;;;;;;;1999.90;999.90;;;13.90;76.90;;;;;;5106932;28;20040;-73
2023/08/04 02:28:59;;;;;;;1999.90;999.90;;;14.00;77.70;;;;;;5110718;27;20028;-73
2023/08/04 02:31:27;;;;;;;1999.90;999.90;;;13.90;77.40;;;;;;5106925;28;20023;-73
2023/08/04 02:33:54;;;;;;;1999.90;999.90;;;13.90;77.40;;;;;;5081184;28;20032;-73
2023/08/04 02:36:20;;;;;;;1999.90;999.90;;;13.90;79.20;;;;;;5099867;28;20036;-73
2023/08/04 02:38:46;;;;;;;1999.90;999.90;;;13.80;78.90;;;;;;5105704;28;20075;-73
2023/08/04 02:41:12;;;;;;;1999.90;999.90;;;13.90;78.70;;;;;;5101406;28;20431;-72
2023/08/04 02:43:38;;;;;;;1999.90;999.90;;;13.90;79.60;;;;;;5106441;28;20035;-72
2023/08/04 02:46:04;;;;;;;1999.90;999.90;;;14.00;78.70;;;;;;5106568;28;20643;-73
2023/08/04 02:48:32;;;;;;;1999.90;999.90;;;14.00;77.90;;;;;;5105179;28;20059;-73
2023/08/04 02:51:09;;;;;;;1999.90;999.90;;;14.10;78.10;;;;;;5102236;28;20059;-73
2023/08/04 02:53:36;;;;;;;1999.90;999.90;;;14.10;77.70;;;;;;5106836;28;20035;-73
2023/08/04 02:56:12;;;;;;;1999.90;999.90;;;14.00;79.40;;;;;;5108361;28;20389;-72
2023/08/04 02:58:38;;;;;;;1999.90;999.90;;;14.00;79.10;;;;;;5111341;27;20027;-73
2023/08/04 03:01:04;;;;;;;1999.90;999.90;;;14.00;79.40;;;;;;5109093;28;20034;-72
2023/08/04 03:03:31;;;;;;;1999.90;999.90;;;13.90;79.10;;;;;;5107641;28;20039;-73
2023/08/04 03:05:58;;;;;;;1999.90;999.90;;;14.00;79.90;;;;;;5089016;28;20048;-73
2023/08/04 03:08:24;;;;;;;1999.90;999.90;;;14.10;79.60;;;;;;5107253;28;20055;-73
2023/08/04 03:10:50;;;;;;;1999.90;999.90;;;14.20;79.10;;;;;;5109050;28;20051;-73
2023/08/04 03:13:15;;;;;;;1999.90;999.90;;;14.20;78.50;;;;;;5109133;27;20055;-73
2023/08/04 03:15:41;;;;;;;1999.90;999.90;;;14.20;79.40;;;;;;5106369;28;20020;-73
2023/08/04 03:18:07;;;;;;;1999.90;999.90;;;14.20;79.20;;;;;;5107009;28;20039;-73
2023/08/04 03:20:37;;;;;;;1999.90;999.90;;;14.20;79.20;;;;;;5103075;28;20039;-72
2023/08/04 03:23:04;;;;;;;1999.90;999.90;;;14.30;79.30;;;;;;5107737;28;20043;-73
2023/08/04 03:25:30;;;;;;;1999.90;999.90;;;14.40;78.90;;;;;;5103920;28;20053;-73
2023/08/04 03:27:55;;;;;;;1999.90;999.90;;;14.50;78.70;;;;;;5106695;28;20028;-73
2023/08/04 03:30:21;;;;;;;1999.90;999.90;;;14.50;78.70;;;;;;5106401;28;20036;-73
2023/08/04 03:32:47;;;;;;;1999.90;999.90;;;14.50;78.80;;;;;;5107161;28;20495;-73
2023/08/04 03:35:12;;;;;;;1999.90;999.90;;;14.50;79.10;;;;;;5106561;28;20031;-72
2023/08/04 03:37:39;;;;;;;1999.90;999.90;;;14.50;79.60;;;;;;5103775;28;20035;-72
2023/08/04 03:40:07;;;;;;;1999.90;999.90;;;14.50;81.00;;;;;;5106877;28;20565;-74
2023/08/04 03:42:33;;;;;;;1999.90;999.90;;;14.50;81.40;;;;;;5103310;28;20378;-73
2023/08/04 03:44:59;;;;;;;1999.90;999.90;;;14.50;81.60;;;;;;5103484;28;20610;-73
2023/08/04 03:47:24;;;;;;;1999.90;999.90;;;14.50;81.20;;;;;;5100333;28;20118;-72
2023/08/04 03:49:50;;;;;;;1999.90;999.90;;;14.50;81.90;;;;;;5106107;28;20031;-73
2023/08/04 03:52:15;;;;;;;1999.90;999.90;;;14.50;82.40;;;;;;5104034;28;20164;-73
2023/08/04 03:54:41;;;;;;;1999.90;999.90;;;14.50;82.30;;;;;;5101469;28;20084;-73
2023/08/04 03:57:07;;;;;;;1999.90;999.90;;;14.60;82.20;;;;;;5104759;28;20047;-73
2023/08/04 03:59:32;;;;;;;1999.90;999.90;;;14.60;82.00;;;;;;5103116;28;20048;-73
2023/08/04 04:01:58;;;;;;;1999.90;999.90;;;14.70;83.20;;;;;;5108495;28;20507;-72
2023/08/04 04:04:24;;;;;;;1999.90;999.90;;;14.60;83.40;;;;;;5111560;28;20127;-73
2023/08/04 04:06:49;;;;;;;1999.90;999.90;;;14.70;83.70;;;;;;5110213;28;20042;-73
2023/08/04 04:09:15;;;;;;;1999.90;999.90;;;14.70;84.30;;;;;;5110666;28;20696;-72
2023/08/04 04:11:40;;;;;;;1999.90;999.90;;;14.70;83.60;;;;;;5110121;28;20038;-73
2023/08/04 04:14:07;;;;;;;1999.90;999.90;;;14.70;84.40;;;;;;5109545;28;20038;-73
2023/08/04 04:16:33;;;;;;;1999.90;999.90;;;14.70;84.60;;;;;;5110756;28;20476;-73
2023/08/04 04:18:59;;;;;;;1999.90;999.90;;;14.70;84.70;;;;;;5110628;28;20032;-73
2023/08/04 04:21:24;;;;;;;1999.90;999.90;;;14.60;85.00;;;;;;5108061;28;20509;-72
2023/08/04 04:23:50;;;;;;;1999.90;999.90;;;14.70;86.00;;;;;;5109243;28;20504;-72
2023/08/04 04:26:16;;;;;;;1999.90;999.90;;;14.60;85.10;;;;;;5096307;28;20751;-73
2023/08/04 04:28:41;;;;;;;1999.90;999.90;;;14.60;85.60;;;;;;5106014;28;20075;-73
2023/08/04 04:31:07;;;;;;;1999.90;999.90;;;14.70;85.70;;;;;;5107535;28;20561;-72
2023/08/04 04:33:32;;;;;;;1999.90;999.90;;;14.60;85.30;;;;;;5105107;28;20040;-73
2023/08/04 04:35:58;;;;;;;1999.90;999.90;;;14.70;85.70;;;;;;5107968;28;20104;-73
2023/08/04 04:38:28;;;;;;;1999.90;999.90;;;14.70;85.10;;;;;;5108383;28;20054;-72
2023/08/04 04:40:58;;;;;;;1999.90;999.90;;;14.70;85.00;;;;;;5105355;28;20342;-72
2023/08/04 04:43:24;;;;;;;1999.90;999.90;;;14.70;84.50;;;;;;5107056;27;20209;-73
2023/08/04 04:45:51;;;;;;;1999.90;999.90;;;14.70;84.40;;;;;;5106557;28;20729;-72
2023/08/04 04:48:17;;;;;;;1999.90;999.90;;;14.80;84.40;;;;;;5088268;28;20032;-73
2023/08/04 04:50:43;;;;;;;1999.90;999.90;;;14.80;83.90;;;;;;5104412;28;20040;-72
2023/08/04 04:53:09;;;;;;;1999.90;999.90;;;14.90;83.40;;;;;;5106395;28;20034;-74
2023/08/04 04:55:35;;;;;;;1999.90;999.90;;;14.80;83.20;;;;;;5104254;28;20028;-73
2023/08/04 04:58:02;;;;;;;1999.90;999.90;;;14.90;83.10;;;;;;5109467;28;20192;-73
2023/08/04 05:00:27;;;;;;;1999.90;999.90;;;14.90;83.60;;;;;;5107430;28;20035;-73
2023/08/04 05:02:54;;;;;;;1999.90;999.90;;;15.00;83.80;;;;;;5103502;28;20052;-73
2023/08/04 05:05:20;;;;;;;1999.90;999.90;;;15.10;82.40;;;;;;5106390;28;20035;-73
2023/08/04 05:07:46;;;;;;;1999.90;999.90;;;15.20;81.70;;;;;;5101649;28;20035;-73
2023/08/04 05:10:12;;;;;;;1999.90;999.90;;;15.20;81.50;;;;;;5107831;28;20042;-73
2023/08/04 05:12:37;;;;;;;1999.90;999.90;;;15.30;82.50;;;;;;5104818;28;20039;-73
2023/08/04 05:15:03;;;;;;;1999.90;999.90;;;15.20;81.50;;;;;;5107382;28;20513;-78
2023/08/04 05:17:29;;;;;;;1999.90;999.90;;;15.30;82.10;;;;;;5105645;28;20027;-78
2023/08/04 05:19:55;;;;;;;1999.90;999.90;;;15.30;82.60;;;;;;5089272;28;20490;-78
2023/08/04 05:22:20;;;;;;;1999.90;999.90;;;15.30;82.00;;;;;;5090144;28;20110;-78
2023/08/04 05:24:46;;;;;;;1999.90;999.90;;;15.30;82.20;;;;;;5103871;28;20023;-78
2023/08/04 05:27:12;;;;;;;1999.90;999.90;;;15.30;81.50;;;;;;5087368;28;20115;-80
2023/08/04 05:29:37;;;;;;;1999.90;999.90;;;15.30;81.40;;;;;;5107293;28;20043;-80
2023/08/04 05:32:03;;;;;;;1999.90;999.90;;;15.20;81.60;;;;;;5074990;28;20525;-77
2023/08/04 05:34:29;;;;;;;1999.90;999.90;;;15.20;82.20;;;;;;5107457;28;20042;-76
2023/08/04 05:36:55;;;;;;;1999.90;999.90;;;15.30;81.90;;;;;;5084614;28;20020;-76
2023/08/04 05:39:20;;;;;;;1999.90;999.90;;;15.40;81.10;;;;;;5107102;28;20031;-76
2023/08/04 05:41:47;;;;;;;1999.90;999.90;;;15.40;81.60;;;;;;5105780;27;20114;-77
2023/08/04 05:44:13;;;;;;;1999.90;999.90;;;15.40;80.90;;;;;;5106322;28;20031;-82
2023/08/04 05:46:39;;;;;;;1999.90;999.90;;;15.40;81.50;;;;;;5100733;28;20088;-77
2023/08/04 05:49:05;;;;;;;1999.90;999.90;;;15.50;81.00;;;;;;5113014;28;20445;-77
2023/08/04 05:51:31;;;;;;;1999.90;999.90;;;15.50;80.00;;;;;;5112893;28;20023;-73
2023/08/04 05:53:57;;;;;;;1999.90;999.90;;;15.40;80.90;;;;;;5113681;28;20065;-73
2023/08/04 05:56:22;;;;;;;1999.90;999.90;;;15.40;81.10;;;;;;5111506;27;20047;-73
2023/08/04 05:58:48;;;;;;;1999.90;999.90;;;15.50;80.30;;;;;;5098526;28;20064;-75
2023/08/04 06:01:13;;;;;;;1999.90;999.90;;;15.50;80.30;;;;;;5091917;28;20031;-75
2023/08/04 06:03:39;;;;;;;1999.90;999.90;;;15.50;81.20;;;;;;5102919;28;20054;-75
2023/08/04 06:06:05;;;;;;;1999.90;999.90;;;15.50;80.60;;;;;;5089512;28;20035;-75
2023/08/04 06:08:30;;;;;;;1999.90;999.90;;;15.70;80.20;;;;;;5106719;28;20119;-75
2023/08/04 06:10:56;;;;;;;1999.90;999.90;;;15.70;79.70;;;;;;5089032;28;20773;-76
2023/08/04 06:13:22;;;;;;;1999.90;999.90;;;15.80;80.80;;;;;;5109062;28;20080;-75
2023/08/04 06:15:48;;;;;;;1999.90;999.90;;;15.90;78.70;;;;;;5090499;28;20051;-75
2023/08/04 06:18:14;;;;;;;1999.90;999.90;;;16.20;78.40;;;;;;5104580;28;20036;-75
2023/08/04 06:20:39;;;;;;;1999.90;999.90;;;16.40;79.10;;;;;;5101324;28;20059;-76
2023/08/04 06:23:05;;;;;;;1999.90;999.90;;;16.80;77.30;;;;;;5101478;28;20043;-75
2023/08/04 06:25:31;;;;;;;1999.90;999.90;;;17.00;76.50;;;;;;5105991;28;20449;-75
2023/08/04 06:27:57;;;;;;;1999.90;999.90;;;17.30;76.30;;;;;;5105717;28;20036;-75
2023/08/04 06:30:23;;;;;;;1999.90;999.90;;;17.20;75.00;;;;;;5104638;28;20493;-75
2023/08/04 06:32:49;;;;;;;1999.90;999.90;;;17.10;74.80;;;;;;5104900;28;20026;-75
2023/08/04 06:35:15;;;;;;;1999.90;999.90;;;16.70;75.80;;;;;;5073549;28;20525;-76
2023/08/04 06:37:41;;;;;;;1999.90;999.90;;;16.60;77.00;;;;;;5103173;28;20074;-75
2023/08/04 06:40:07;;;;;;;1999.90;999.90;;;16.40;76.40;;;;;;5088893;28;20031;-75
2023/08/04 06:42:32;;;;;;;1999.90;999.90;;;16.20;77.30;;;;;;5106426;28;20046;-76
2023/08/04 06:44:58;;;;;;;1999.90;999.90;;;16.10;77.60;;;;;;5107513;28;20108;-75
2023/08/04 06:47:24;;;;;;;1999.90;999.90;;;16.20;78.20;;;;;;5091815;28;20031;-75
2023/08/04 06:49:50;;;;;;;1999.90;999.90;;;16.30;78.70;;;;;;5069514;28;20059;-74
2023/08/04 06:52:15;;;;;;;1999.90;999.90;;;16.40;78.80;;;;;;5104361;28;20028;-75
2023/08/04 06:54:41;;;;;;;1999.90;999.90;;;16.50;78.10;;;;;;5086396;28;20492;-74
2023/08/04 06:57:07;;;;;;;1999.90;999.90;;;16.70;76.90;;;;;;5105065;28;20116;-75
2023/08/04 06:59:33;;;;;;;1999.90;999.90;;;16.90;78.90;;;;;;5087128;28;20468;-75
2023/08/04 07:01:59;;;;;;;1999.90;999.90;;;17.00;76.40;;;;;;5108746;28;20036;-75
2023/08/04 07:04:25;;;;;;;1999.90;999.90;;;17.20;75.70;;;;;;5108884;28;20466;-76
2023/08/04 07:06:50;;;;;;;1999.90;999.90;;;17.40;76.50;;;;;;5103947;28;20092;-75
2023/08/04 07:09:16;;;;;;;1999.90;999.90;;;17.60;76.00;;;;;;5105662;28;20040;-76
2023/08/04 07:11:42;;;;;;;1999.90;999.90;;;17.70;75.10;;;;;;5101923;28;20063;-76
2023/08/04 07:14:07;;;;;;;1999.90;999.90;;;17.80;73.40;;;;;;5104160;28;20107;-75
2023/08/04 07:16:34;;;;;;;1999.90;999.90;;;17.60;71.00;;;;;;5105992;28;20035;-75
2023/08/04 07:19:00;;;;;;;1999.90;999.90;;;17.30;72.80;;;;;;5106185;28;20558;-75
2023/08/04 07:21:25;;;;;;;1999.90;999.90;;;17.50;75.40;;;;;;5107125;28;20036;-75
2023/08/04 07:23:51;;;;;;;1999.90;999.90;;;17.70;72.10;;;;;;5104039;28;20073;-75
2023/08/04 07:26:17;;;;;;;1999.90;999.90;;;17.80;72.10;;;;;;5073451;28;20036;-75
2023/08/04 07:28:42;;;;;;;1999.90;999.90;;;18.00;71.30;;;;;;5105348;28;20074;-75
2023/08/04 07:31:10;;;;;;;1999.90;999.90;;;18.00;69.60;;;;;;5104432;28;20051;-76
2023/08/04 07:33:37;;;;;;;1999.90;999.90;;;17.90;70.60;;;;;;5104057;28;20038;-75
2023/08/04 07:36:03;;;;;;;1999.90;999.90;;;18.00;72.20;;;;;;5103865;28;20521;-75
2023/08/04 07:38:31;;;;;;;1999.90;999.90;;;18.00;70.40;;;;;;5104570;27;20034;-76
2023/08/04 07:40:57;;;;;;;1999.90;999.90;;;18.00;70.30;;;;;;5089241;28;20410;-75
2023/08/04 07:43:23;;;;;;;1999.90;999.90;;;18.20;68.90;;;;;;5088120;28;20084;-76
2023/08/04 07:45:49;;;;;;;1999.90;999.90;;;18.30;68.60;;;;;;5086924;28;20020;-75
2023/08/04 07:48:15;;;;;;;1999.90;999.90;;;18.30;69.40;;;;;;5085388;28;20363;-75
2023/08/04 07:50:44;;;;;;;1999.90;999.90;;;18.40;69.40;;;;;;5104854;28;20036;-75
2023/08/04 07:53:09;;;;;;;1999.90;999.90;;;18.60;67.40;;;;;;5085323;28;20073;-75
2023/08/04 07:55:36;;;;;;;1999.90;999.90;;;19.10;67.00;;;;;;5105775;28;20153;-75
2023/08/04 07:58:03;;;;;;;1999.90;999.90;;;19.20;66.10;;;;;;5103409;28;20134;-75
2023/08/04 08:00:28;;;;;;;1999.90;999.90;;;19.50;68.50;;;;;;5104693;28;20088;-75
2023/08/04 08:02:54;;;;;;;1999.90;999.90;;;19.70;63.00;;;;;;5102074;28;20044;-76
2023/08/04 08:05:20;;;;;;;1999.90;999.90;;;19.70;63.90;;;;;;5071488;28;20036;-75
2023/08/04 08:07:45;;;;;;;1999.90;999.90;;;19.70;65.00;;;;;;5105283;28;20039;-75
2023/08/04 08:10:11;;;;;;;1999.90;999.90;;;20.40;64.50;;;;;;5106488;28;20825;-72
2023/08/04 08:12:37;;;;;;;1999.90;999.90;;;20.70;61.40;;;;;;5104896;28;20032;-73
2023/08/04 08:15:05;;;;;;;1999.90;999.90;;;21.00;63.30;;;;;;5088059;28;20020;-72
2023/08/04 08:17:31;;;;;;;1999.90;999.90;;;21.40;64.00;;;;;;5105248;28;20062;-73
2023/08/04 08:19:57;;;;;;;1999.90;999.90;;;21.50;59.40;;;;;;5087846;28;20036;-72
2023/08/04 08:22:22;;;;;;;1999.90;999.90;;;21.50;57.80;;;;;;5110085;28;20027;-73
2023/08/04 08:24:55;;;;;;;1999.90;999.90;;;21.10;59.40;;;;;;5109699;28;20076;-72
2023/08/04 08:27:21;;;;;;;1999.90;999.90;;;20.80;60.30;;;;;;5123979;28;20039;-72
2023/08/04 08:29:48;;;;;;;1999.90;999.90;;;20.60;59.70;;;;;;5120671;28;20039;-71
2023/08/04 08:32:14;;;;;;;1999.90;999.90;;;20.30;63.30;;;;;;5121554;28;20024;-71
2023/08/04 08:34:40;;;;;;;1999.90;999.90;;;20.00;63.40;;;;;;5114716;28;20042;-72
2023/08/04 08:37:08;;;;;;;1999.90;999.90;;;19.70;62.10;;;;;;5083824;28;20024;-72
2023/08/04 08:39:34;;;;;;;1999.90;999.90;;;19.40;64.50;;;;;;5104760;28;20088;-72
2023/08/04 08:42:00;;;;;;;1999.90;999.90;;;18.90;66.40;;;;;;5086601;28;20035;-73
2023/08/04 08:44:26;;;;;;;1999.90;999.90;;;18.70;66.40;;;;;;5107170;28;20036;-76
2023/08/04 08:46:52;;;;;;;1999.90;999.90;;;18.60;66.00;;;;;;5107039;28;20024;-75
2023/08/04 08:49:23;;;;;;;1999.90;999.90;;;18.60;69.10;;;;;;5110597;27;20401;-76
2023/08/04 08:51:52;;;;;;;1999.90;999.90;;;18.50;69.80;;;;;;5109985;27;20624;-76
2023/08/04 08:54:18;;;;;;;1999.90;999.90;;;18.60;68.80;;;;;;5110396;28;20032;-76
2023/08/04 08:56:45;;;;;;;1999.90;999.90;;;18.60;66.30;;;;;;5107330;28;20047;-75
2023/08/04 08:59:10;;;;;;;1999.90;999.90;;;18.60;66.70;;;;;;5090812;28;20024;-75
2023/08/04 09:01:37;;;;;;;1999.90;999.90;;;19.00;68.40;;;;;;5108847;28;20828;-75
2023/08/04 09:04:04;;;;;;;1999.90;999.90;;;19.30;68.00;;;;;;5109295;28;20182;-75
2023/08/04 09:06:30;;;;;;;1999.90;999.90;;;19.40;64.70;;;;;;5105640;28;20111;-75
2023/08/04 09:08:56;;;;;;;1999.90;999.90;;;19.60;64.00;;;;;;5108689;28;20118;-75
2023/08/04 09:11:21;;;;;;;1999.90;999.90;;;19.80;61.20;;;;;;5104166;28;20028;-73
2023/08/04 09:13:49;;;;;;;1999.90;999.90;;;20.20;63.90;;;;;;5106174;28;20059;-72
2023/08/04 09:16:15;;;;;;;1999.90;999.90;;;20.70;60.00;;;;;;5106487;28;20027;-72
2023/08/04 09:18:42;;;;;;;1999.90;999.90;;;21.00;61.00;;;;;;5107074;27;20024;-72
2023/08/04 09:21:08;;;;;;;1999.90;999.90;;;21.10;56.50;;;;;;5087090;28;20115;-73
2023/08/04 09:23:47;;;;;;;1999.90;999.90;;;21.20;59.80;;;;;;5104541;28;20114;-72
2023/08/04 09:26:13;;;;;;;1999.90;999.90;;;21.40;56.30;;;;;;5105325;28;20030;-73
2023/08/04 09:28:39;;;;;;;1999.90;999.90;;;21.30;55.10;;;;;;5107371;28;20019;-73
2023/08/04 09:31:06;;;;;;;1999.90;999.90;;;21.30;55.80;;;;;;5090449;28;20027;-73
2023/08/04 09:33:33;;;;;;;1999.90;999.90;;;21.10;53.60;;;;;;5086349;28;20028;-73
2023/08/04 09:36:07;;;;;;;1999.90;999.90;;;21.10;56.40;;;;;;5109058;28;20024;-73
2023/08/04 09:38:34;;;;;;;1999.90;999.90;;;21.00;53.20;;;;;;5106593;28;20149;-73
2023/08/04 09:41:08;;;;;;;1999.90;999.90;;;20.80;57.20;;;;;;5109551;28;20114;-72
2023/08/04 09:43:34;;;;;;;1999.90;999.90;;;20.80;58.00;;;;;;5085969;28;20034;-73
2023/08/04 09:46:07;;;;;;;1999.90;999.90;;;20.50;54.30;;;;;;5105116;28;20107;-73
2023/08/04 09:48:33;;;;;;;1999.90;999.90;;;20.50;57.00;;;;;;5104787;27;20032;-73
2023/08/04 09:51:10;;;;;;;1999.90;999.90;;;20.60;54.90;;;;;;5110951;28;20055;-73
2023/08/04 09:53:43;;;;;;;1999.90;999.90;;;20.90;57.40;;;;;;5106205;28;20024;-73
2023/08/04 09:56:13;;;;;;;1999.90;999.90;;;21.40;52.90;;;;;;5093040;28;20043;-73
2023/08/04 09:58:40;;;;;;;1999.90;999.90;;;21.60;53.60;;;;;;5103936;28;20032;-74
2023/08/04 10:01:06;;;;;;;1999.90;999.90;;;21.70;51.60;;;;;;5107700;28;20027;-73
2023/08/04 10:03:37;;;;;;;1999.90;999.90;;;21.40;54.70;;;;;;5072950;28;20040;-74
2023/08/04 10:06:05;;;;;;;1999.90;999.90;;;21.70;53.60;;;;;;5104235;28;20027;-73
2023/08/04 10:08:33;;;;;;;1999.90;999.90;;;21.80;55.20;;;;;;5108633;28;20031;-73
2023/08/04 10:11:00;;;;;;;1999.90;999.90;;;21.50;51.20;;;;;;5109243;28;20069;-73
2023/08/04 10:13:35;;;;;;;1999.90;999.90;;;21.50;54.40;;;;;;5092406;28;20028;-73
2023/08/04 10:16:08;;;;;;;1999.90;999.90;;;22.20;53.70;;;;;;5104770;27;20028;-73
2023/08/04 10:18:53;;;;;;;1999.90;999.90;;;22.80;52.90;;;;;;5105072;27;20553;-73
2023/08/04 10:21:40;;;;;;;1999.90;999.90;;;22.70;48.40;;;;;;5104327;27;20104;-73
2023/08/04 10:24:08;;;;;;;1999.90;999.90;;;22.10;50.90;;;;;;5105795;28;20031;-73
2023/08/04 10:26:43;;;;;;;1999.90;999.90;;;22.50;52.60;;;;;;5102067;28;20059;-73
2023/08/04 10:29:10;;;;;;;1999.90;999.90;;;22.80;50.10;;;;;;5108758;28;20028;-74
2023/08/04 10:31:57;;;;;;;1999.90;999.90;;;23.00;49.50;;;;;;5108748;27;20691;-73
2023/08/04 10:34:23;;;;;;;1999.90;999.90;;;23.40;47.50;;;;;;5101466;28;20032;-75
2023/08/04 10:37:17;;;;;;;1999.90;999.90;;;23.80;47.40;;;;;;5085753;28;20028;-75
2023/08/04 10:39:43;;;;;;;1999.90;999.90;;;24.10;48.10;;;;;;5092047;28;20081;-73
2023/08/04 10:42:11;;;;;;;1999.90;999.90;;;23.90;48.50;;;;;;5104441;28;20028;-73
2023/08/04 10:44:52;;;;;;;1999.90;999.90;;;23.70;45.20;;;;;;5108942;28;20813;-74
2023/08/04 10:47:46;;;;;;;1999.90;999.90;;;23.00;47.50;;;;;;5109210;28;20114;-73
2023/08/04 10:50:13;;;;;;;1999.90;999.90;;;22.40;49.10;;;;;;5088533;28;20446;-74
2023/08/04 10:52:41;;;;;;;1999.90;999.90;;;22.30;49.40;;;;;;5103499;28;20035;-72
2023/08/04 10:55:10;;;;;;;1999.90;999.90;;;22.20;49.20;;;;;;5104028;28;20027;-81
2023/08/04 10:57:37;;;;;;;1999.90;999.90;;;22.00;47.80;;;;;;5088213;28;20047;-77
2023/08/04 11:00:05;;;;;;;1999.90;999.90;;;22.00;50.60;;;;;;5088611;28;20032;-79
2023/08/04 11:02:32;;;;;;;1999.90;999.90;;;22.10;52.50;;;;;;5105328;28;20489;-78
2023/08/04 11:04:58;;;;;;;1999.90;999.90;;;22.10;49.80;;;;;;5107455;28;20070;-76
2023/08/04 11:07:24;;;;;;;1999.90;999.90;;;22.30;46.60;;;;;;5110457;27;20055;-79
2023/08/04 11:09:51;;;;;;;1999.90;999.90;;;22.20;45.80;;;;;;5108148;28;20039;-78
2023/08/04 11:12:18;;;;;;;1999.90;999.90;;;22.40;46.90;;;;;;5108115;28;20557;-77
2023/08/04 11:14:44;;;;;;;1999.90;999.90;;;22.40;45.90;;;;;;5088965;28;20655;-77
2023/08/04 11:17:14;;;;;;;1999.90;999.90;;;22.30;48.10;;;;;;5086937;28;20047;-78
2023/08/04 11:19:42;;;;;;;1999.90;999.90;;;22.70;43.80;;;;;;5108063;27;20033;-77
2023/08/04 11:22:09;;;;;;;1999.90;999.90;;;23.60;44.40;;;;;;5085372;28;20129;-77
2023/08/04 11:24:35;;;;;;;1999.90;999.90;;;23.60;39.90;;;;;;5089369;28;20485;-77
2023/08/04 11:27:01;;;;;;;1999.90;999.90;;;23.50;41.60;;;;;;5108145;28;20035;-77
2023/08/04 11:29:26;;;;;;;1999.90;999.90;;;23.10;41.60;;;;;;5090119;28;20526;-77
2023/08/04 11:31:53;;;;;;;1999.90;999.90;;;23.10;45.70;;;;;;5089840;28;20039;-77
2023/08/04 11:34:19;;;;;;;1999.90;999.90;;;22.90;43.00;;;;;;5087346;28;20032;-76
2023/08/04 11:36:45;;;;;;;1999.90;999.90;;;22.60;43.60;;;;;;5073150;28;20157;-76
2023/08/04 11:39:11;;;;;;;1999.90;999.90;;;22.60;45.20;;;;;;5105780;28;20512;-77
2023/08/04 11:41:37;;;;;;;1999.90;999.90;;;22.80;45.60;;;;;;5105830;28;20040;-76
2023/08/04 11:44:04;;;;;;;1999.90;999.90;;;23.00;45.60;;;;;;5089609;28;20165;-76
2023/08/04 11:46:30;;;;;;;1999.90;999.90;;;23.40;43.20;;;;;;5104260;28;20036;-75
2023/08/04 11:48:56;;;;;;;1999.90;999.90;;;24.00;43.00;;;;;;5101799;28;20035;-76
2023/08/04 11:51:22;;;;;;;1999.90;999.90;;;24.20;40.90;;;;;;5099918;28;20043;-75
2023/08/04 11:53:49;;;;;;;1999.90;999.90;;;24.40;40.40;;;;;;5087181;28;20031;-75
2023/08/04 11:56:15;;;;;;;1999.90;999.90;;;24.70;39.10;;;;;;5108252;28;20070;-75
2023/08/04 11:58:45;;;;;;;1999.90;999.90;;;24.60;40.40;;;;;;5103208;28;20118;-70